createdAt,value
2018-12-16T02:50:27.783Z,16.32
2018-12-16T02:55:38.759Z,17.65
2018-12-16T03:01:12.445Z,16.52
2018-12-16T03:06:23.888Z,16.93
2018-12-16T03:11:34.928Z,16.35
2018-12-16T03:16:45.662Z,18.50
2018-12-16T03:21:57.361Z,17.65
2018-12-16T03:27:08.590Z,18.30
2018-12-16T03:32:19.875Z,17.02
2018-12-16T03:37:30.990Z,17.23
2018-12-16T03:51:38.319Z,17.10
2018-12-16T03:56:49.041Z,18.15
2018-12-16T04:02:01.693Z,18.35
2018-12-16T04:07:12.608Z,18.15
2018-12-16T04:12:23.492Z,17.95
2018-12-16T04:17:34.906Z,17.70
2018-12-16T04:22:46.460Z,17.05
2018-12-16T04:27:57.817Z,18.55
2018-12-16T04:37:59.284Z,17.02
2018-12-16T04:43:09.907Z,17.12
2018-12-16T04:48:21.675Z,16.42
2018-12-16T04:53:36.863Z,16.12
2018-12-16T04:58:45.897Z,15.45
2018-12-16T05:03:56.782Z,16.02
2018-12-16T05:09:09.883Z,15.15
2018-12-16T05:14:20.918Z,15.25
2018-12-16T05:19:33.219Z,13.98
2018-12-16T05:24:44.524Z,14.70
2018-12-16T05:29:57.278Z,14.43
2018-12-16T05:35:08.341Z,14.53
2018-12-16T05:40:19.885Z,14.43
2018-12-16T05:45:30.538Z,15.00
2018-12-16T05:50:41.786Z,13.60
2018-12-16T05:55:52.737Z,14.00
2018-12-16T06:01:03.634Z,13.93
2018-12-16T06:06:14.586Z,12.37
2018-12-16T06:11:27.481Z,11.48
2018-12-16T06:16:38.516Z,10.13
2018-12-16T06:21:49.845Z,9.87
2018-12-16T06:27:00.846Z,8.73
2018-12-16T06:37:23.508Z,9.03
2018-12-16T06:42:34.712Z,9.03
2018-12-16T06:52:57.605Z,10.03
2018-12-16T06:55:28.468Z,10.63
2018-12-16T07:00:39.983Z,9.98
2018-12-16T07:11:01.632Z,10.53
2018-12-16T07:16:12.977Z,11.15
2018-12-16T07:21:23.835Z,11.60
2018-12-16T07:26:34.887Z,11.90
2018-12-16T07:31:45.996Z,12.10
2018-12-16T07:36:56.686Z,11.40
2018-12-16T07:42:07.597Z,11.95
2018-12-16T07:47:18.639Z,11.45
2018-12-16T07:52:29.608Z,11.60
2018-12-16T07:57:40.807Z,10.85
2018-12-16T08:02:53.481Z,10.80
2018-12-16T08:08:05.569Z,10.43
2018-12-16T08:13:16.803Z,10.00
2018-12-16T08:18:27.644Z,9.40
2018-12-16T08:23:39.906Z,9.85
2018-12-16T08:28:51.452Z,10.88
2018-12-16T08:34:01.588Z,10.18
2018-12-16T08:39:14.655Z,10.18
2018-12-16T08:44:25.620Z,10.65
2018-12-16T08:49:36.897Z,10.45
2018-12-16T08:54:48.590Z,11.03
2018-12-16T09:00:00.896Z,10.08
2018-12-16T09:05:12.199Z,11.73
2018-12-16T09:10:23.408Z,11.47
2018-12-16T09:25:55.896Z,12.00
2018-12-16T09:31:08.620Z,13.58
2018-12-16T09:36:19.689Z,13.15
2018-12-16T09:41:34.730Z,12.65
2018-12-16T09:52:05.226Z,13.15
2018-12-16T09:57:16.227Z,14.68
2018-12-16T10:02:27.374Z,16.97
2018-12-16T10:07:40.616Z,12.58
2018-12-16T10:12:53.301Z,13.18
2018-12-16T10:18:06.992Z,13.75
2018-12-16T10:23:46.320Z,15.18
2018-12-16T10:28:57.917Z,13.60
2018-12-16T10:35:39.655Z,11.95
2018-12-16T10:40:50.814Z,12.93
2018-12-16T10:46:02.095Z,15.48
2018-12-16T10:57:06.643Z,13.58
2018-12-16T11:02:19.887Z,12.78
2018-12-16T11:07:32.654Z,13.43
2018-12-16T11:12:46.736Z,14.25
2018-12-16T11:17:57.896Z,14.60
2018-12-16T11:23:10.602Z,13.13
2018-12-16T11:28:29.668Z,13.43
2018-12-16T11:33:41.701Z,13.05
2018-12-16T11:38:52.811Z,13.38
2018-12-16T11:44:07.645Z,12.93
2018-12-16T11:49:18.923Z,13.38
2018-12-16T11:54:47.316Z,12.47
2018-12-16T12:00:00.324Z,12.90
2018-12-16T12:05:13.014Z,13.38
2018-12-16T12:10:27.772Z,14.68
2018-12-16T12:15:40.530Z,11.80
2018-12-16T12:20:54.609Z,12.37
2018-12-16T12:26:05.732Z,12.35
2018-12-16T12:37:09.670Z,15.43
2018-12-16T12:42:21.227Z,14.75
2018-12-16T12:47:32.640Z,12.63
2018-12-16T12:52:47.813Z,11.68
2018-12-16T12:57:59.630Z,13.50
2018-12-16T13:03:11.464Z,13.30
2018-12-16T13:08:22.839Z,12.98
2018-12-16T13:18:44.568Z,10.93
2018-12-16T13:23:55.844Z,9.20
2018-12-16T13:29:06.592Z,8.23
2018-12-16T13:34:16.909Z,8.07
2018-12-16T13:44:42.597Z,9.23
2018-12-16T13:49:56.793Z,9.95
2018-12-16T13:55:08.640Z,8.70
2018-12-16T14:05:36.678Z,9.23
2018-12-16T14:11:34.115Z,9.98
2018-12-16T14:16:45.638Z,11.55
2018-12-16T14:22:29.875Z,9.90
2018-12-16T14:32:55.061Z,10.58
2018-12-16T14:38:17.201Z,10.10
2018-12-16T14:48:54.223Z,10.00
2018-12-16T14:54:12.641Z,9.45
2018-12-16T14:59:24.222Z,9.98
2018-12-16T15:04:36.056Z,10.38
2018-12-16T15:09:46.978Z,9.45
2018-12-16T15:14:57.764Z,9.18
2018-12-16T15:20:21.652Z,8.33
2018-12-16T15:25:34.357Z,9.08
2018-12-16T15:36:02.856Z,8.30
2018-12-16T15:41:13.784Z,8.80
2018-12-16T15:52:59.735Z,9.50
2018-12-16T15:58:11.305Z,10.28
2018-12-16T16:03:24.263Z,9.30
2018-12-16T16:13:48.717Z,9.83
2018-12-16T16:18:59.835Z,9.03
2018-12-16T16:24:14.994Z,8.80
2018-12-16T16:29:25.619Z,9.78
2018-12-16T16:34:36.994Z,8.95
2018-12-16T16:39:47.802Z,8.20
2018-12-16T16:44:58.732Z,7.65
2018-12-16T16:50:09.622Z,7.60
2018-12-16T16:55:20.793Z,7.42
2018-12-16T17:00:31.683Z,8.35
2018-12-16T17:05:43.037Z,8.55
2018-12-16T17:10:54.634Z,9.05
2018-12-16T17:16:09.302Z,8.73
2018-12-16T17:21:39.672Z,9.23
2018-12-16T17:26:50.773Z,9.23
2018-12-16T17:36:41.662Z,8.80
2018-12-16T17:41:52.998Z,9.88
2018-12-16T17:47:03.703Z,9.43
2018-12-16T17:58:16.865Z,8.25
2018-12-16T18:03:34.699Z,7.47
2018-12-16T18:08:46.809Z,7.60
2018-12-16T18:14:00.222Z,7.37
2018-12-16T18:24:22.245Z,7.95
2018-12-16T18:29:33.652Z,8.95
2018-12-16T18:34:44.893Z,9.40
2018-12-16T18:39:57.367Z,8.25
2018-12-16T18:45:09.834Z,8.08
2018-12-16T18:50:28.482Z,8.88
2018-12-16T18:55:40.606Z,8.70
2018-12-16T19:00:58.312Z,9.43
2018-12-16T19:06:09.850Z,9.65
2018-12-16T19:11:21.645Z,8.95
2018-12-16T19:16:32.696Z,8.95
2018-12-16T19:27:37.949Z,7.55
2018-12-16T19:32:56.617Z,7.87
2018-12-16T19:38:07.891Z,7.62
2018-12-16T19:43:24.639Z,7.97
2018-12-16T19:48:36.316Z,8.08
2018-12-16T19:53:46.816Z,7.80
2018-12-16T19:58:58.243Z,8.78
2018-12-16T20:04:49.284Z,8.83
2018-12-16T20:10:00.785Z,9.03
2018-12-16T20:15:11.794Z,10.63
2018-12-16T20:20:26.871Z,8.73
2018-12-16T20:25:37.734Z,8.80
2018-12-16T20:30:53.332Z,8.53
2018-12-16T20:36:04.796Z,8.93
2018-12-16T20:41:15.615Z,8.98
2018-12-16T20:46:27.690Z,9.93
2018-12-16T20:51:39.698Z,7.97
2018-12-16T20:56:50.708Z,8.80
2018-12-16T21:02:05.759Z,8.73
2018-12-16T21:07:17.234Z,8.30
2018-12-16T21:12:33.565Z,8.88
2018-12-16T21:18:03.370Z,8.93
2018-12-16T21:23:37.642Z,9.53
2018-12-16T21:28:48.815Z,8.60
2018-12-16T21:34:12.712Z,9.83
2018-12-16T21:39:24.374Z,9.83
2018-12-16T21:44:36.975Z,8.48
2018-12-16T21:49:47.701Z,10.23
2018-12-16T21:54:58.647Z,8.95
2018-12-16T22:00:17.177Z,8.73
2018-12-16T22:05:32.939Z,10.13
2018-12-16T22:11:02.754Z,9.00
2018-12-16T22:16:14.410Z,8.78
2018-12-16T22:21:47.237Z,8.98
2018-12-16T22:26:58.828Z,8.53
2018-12-16T22:32:33.794Z,8.48
2018-12-16T22:37:44.971Z,9.40
2018-12-16T22:42:55.943Z,8.70
2018-12-16T22:48:06.847Z,7.92
2018-12-16T22:53:43.914Z,8.33
2018-12-16T22:58:55.860Z,8.50
2018-12-16T23:04:30.703Z,7.75
2018-12-16T23:09:42.252Z,10.18
2018-12-16T23:14:53.597Z,8.05
2018-12-16T23:20:10.199Z,9.18
2018-12-16T23:25:21.214Z,8.38
2018-12-16T23:30:34.566Z,8.38
2018-12-16T23:35:45.591Z,8.75
2018-12-16T23:41:06.287Z,7.67
2018-12-16T23:46:17.606Z,7.37
2018-12-16T23:57:22.648Z,8.05
